createdAt,value
2018-07-30T00:01:27.130Z,19.40
2018-07-30T00:03:55.519Z,19.30
2018-07-30T00:06:23.973Z,19.30
2018-07-30T00:08:52.336Z,19.40
2018-07-30T00:11:20.987Z,19.40
2018-07-30T00:13:49.667Z,19.40
2018-07-30T00:16:19.026Z,19.40
2018-07-30T00:18:48.127Z,19.40
2018-07-30T00:21:17.625Z,19.40
2018-07-30T00:23:45.992Z,19.20
2018-07-30T00:26:14.363Z,19.20
2018-07-30T00:28:43.931Z,19.20
2018-07-30T00:31:12.874Z,19.20
2018-07-30T00:33:41.282Z,19.30
2018-07-30T00:36:10.263Z,19.20
2018-07-30T00:38:39.239Z,19.20
2018-07-30T00:41:07.879Z,19.20
2018-07-30T00:43:36.251Z,19.20
2018-07-30T00:46:05.207Z,19.20
2018-07-30T00:48:33.883Z,19.20
2018-07-30T00:51:02.332Z,19.10
2018-07-30T00:53:31.268Z,18.90
2018-07-30T00:55:59.971Z,18.80
2018-07-30T00:58:28.631Z,18.70
2018-07-30T01:00:57.306Z,18.70
2018-07-30T01:03:25.994Z,18.60
2018-07-30T01:05:54.368Z,18.60
2018-07-30T01:08:23.547Z,18.60
2018-07-30T01:10:52.338Z,18.70
2018-07-30T01:13:20.727Z,18.80
2018-07-30T01:15:49.118Z,18.80
2018-07-30T01:18:17.527Z,18.80
2018-07-30T01:20:47.733Z,18.70
2018-07-30T01:23:17.696Z,18.70
2018-07-30T01:25:47.405Z,18.70
2018-07-30T01:28:16.080Z,18.60
2018-07-30T01:30:44.758Z,18.60
2018-07-30T01:33:13.191Z,18.50
2018-07-30T01:35:41.930Z,18.40
2018-07-30T01:38:10.863Z,18.30
2018-07-30T01:40:39.550Z,18.00
2018-07-30T01:43:08.527Z,17.90
2018-07-30T01:45:37.179Z,17.80
2018-07-30T01:48:05.603Z,17.80
2018-07-30T01:50:33.963Z,17.70
2018-07-30T01:53:02.667Z,17.60
2018-07-30T01:55:31.084Z,17.50
2018-07-30T01:57:59.730Z,17.50
2018-07-30T02:00:28.138Z,17.50
2018-07-30T02:02:56.999Z,17.60
2018-07-30T02:05:25.382Z,17.60
2018-07-30T02:07:54.076Z,17.70
2018-07-30T02:10:22.771Z,17.80
2018-07-30T02:12:51.383Z,18.00
2018-07-30T02:15:20.047Z,18.00
2018-07-30T02:17:48.754Z,18.00
2018-07-30T02:22:45.567Z,18.20
2018-07-30T02:25:13.945Z,18.10
2018-07-30T02:27:42.971Z,18.10
2018-07-30T02:30:11.352Z,18.00
2018-07-30T02:32:39.979Z,18.10
2018-07-30T02:35:09.310Z,18.00
2018-07-30T02:37:38.011Z,18.00
2018-07-30T02:40:07.206Z,18.00
2018-07-30T02:42:35.595Z,17.90
2018-07-30T02:45:04.628Z,17.80
2018-07-30T02:47:33.343Z,17.80
2018-07-30T02:50:02.287Z,17.80
2018-07-30T02:52:31.031Z,17.70
2018-07-30T02:54:59.671Z,17.70
2018-07-30T02:57:28.664Z,17.80
2018-07-30T02:59:57.300Z,17.80
2018-07-30T03:02:27.585Z,17.80
2018-07-30T03:04:55.973Z,17.80
2018-07-30T03:07:24.435Z,17.70
2018-07-30T03:09:52.818Z,17.60
2018-07-30T03:12:21.202Z,17.50
2018-07-30T03:14:49.906Z,17.40
2018-07-30T03:17:18.274Z,17.30
2018-07-30T03:19:46.670Z,17.30
2018-07-30T03:22:15.042Z,17.30
2018-07-30T03:24:43.446Z,17.10
2018-07-30T03:27:12.011Z,17.10
2018-07-30T03:29:40.803Z,17.20
2018-07-30T03:32:09.187Z,17.20
2018-07-30T03:34:37.675Z,17.10
2018-07-30T03:37:06.103Z,17.10
2018-07-30T03:39:34.491Z,17.10
2018-07-30T03:42:03.219Z,17.10
2018-07-30T03:44:32.147Z,17.00
2018-07-30T03:47:00.534Z,16.90
2018-07-30T03:49:29.143Z,17.00
2018-07-30T03:51:57.538Z,17.00
2018-07-30T03:54:26.174Z,17.10
2018-07-30T03:56:54.819Z,17.00
2018-07-30T03:59:23.548Z,17.10
2018-07-30T04:01:52.099Z,17.10
2018-07-30T04:04:20.511Z,17.00
2018-07-30T04:06:49.647Z,17.00
2018-07-30T04:09:18.062Z,17.00
2018-07-30T04:14:14.816Z,17.00
2018-07-30T04:16:51.459Z,17.00
2018-07-30T04:19:20.571Z,17.00
2018-07-30T04:21:50.147Z,16.80
2018-07-30T04:24:18.526Z,16.80
2018-07-30T04:26:49.464Z,17.00
2018-07-30T04:29:19.522Z,17.10
2018-07-30T04:31:48.473Z,17.20
2018-07-30T04:34:17.051Z,17.30
2018-07-30T04:36:45.978Z,17.30
2018-07-30T04:39:15.287Z,17.40
2018-07-30T04:44:12.359Z,17.40
2018-07-30T04:46:40.879Z,17.30
2018-07-30T04:49:09.312Z,17.30
2018-07-30T04:51:37.868Z,17.20
2018-07-30T04:54:06.464Z,17.30
2018-07-30T04:56:35.094Z,17.30
2018-07-30T04:59:03.493Z,17.40
2018-07-30T05:01:32.140Z,17.30
2018-07-30T05:04:01.372Z,17.30
2018-07-30T05:06:30.067Z,17.40
2018-07-30T05:08:58.706Z,17.80
2018-07-30T05:11:27.122Z,18.50
2018-07-30T05:13:55.811Z,19.10
2018-07-30T05:16:24.706Z,19.80
2018-07-30T05:18:53.819Z,20.70
2018-07-30T05:21:22.863Z,21.40
2018-07-30T05:26:19.315Z,21.90
2018-07-30T05:28:47.980Z,22.40
2018-07-30T05:31:17.066Z,23.00
2018-07-30T05:33:46.903Z,23.50
2018-07-30T05:36:15.299Z,23.50
2018-07-30T05:38:43.999Z,23.40
2018-07-30T05:41:12.379Z,23.40
2018-07-30T05:43:40.838Z,23.40
2018-07-30T05:46:09.543Z,23.70
2018-07-30T05:48:37.907Z,23.80
2018-07-30T05:51:06.266Z,23.90
2018-07-30T05:53:34.883Z,24.00
2018-07-30T05:56:03.767Z,24.20
2018-07-30T05:58:32.144Z,24.30
2018-07-30T06:01:00.571Z,24.60
2018-07-30T06:03:28.951Z,24.80
2018-07-30T06:05:57.805Z,25.00
2018-07-30T06:08:26.245Z,25.30
2018-07-30T06:10:54.963Z,25.50
2018-07-30T06:13:23.753Z,25.60
2018-07-30T06:15:52.435Z,25.90
2018-07-30T06:18:21.583Z,26.10
2018-07-30T06:20:50.330Z,26.20
2018-07-30T06:23:19.275Z,26.30
2018-07-30T06:25:47.652Z,26.60
2018-07-30T06:28:16.844Z,26.90
2018-07-30T06:30:45.780Z,26.90
2018-07-30T06:33:14.148Z,27.10
2018-07-30T06:35:42.503Z,27.30
2018-07-30T06:38:10.871Z,27.60
2018-07-30T06:40:39.496Z,27.80
2018-07-30T06:43:08.639Z,28.00
2018-07-30T06:45:37.687Z,28.10
2018-07-30T06:48:06.633Z,28.30
2018-07-30T06:53:03.747Z,28.70
2018-07-30T06:55:32.766Z,29.10
2018-07-30T06:58:01.368Z,29.20
2018-07-30T07:00:30.878Z,29.50
2018-07-30T07:02:59.284Z,29.60
2018-07-30T07:05:27.643Z,29.60
2018-07-30T07:07:56.024Z,29.90
2018-07-30T07:12:52.787Z,30.20
2018-07-30T07:15:21.192Z,30.50
2018-07-30T07:17:49.840Z,30.60
2018-07-30T07:20:19.232Z,30.40
2018-07-30T07:22:47.610Z,30.00
2018-07-30T07:25:16.311Z,30.50
2018-07-30T07:27:44.695Z,30.90
2018-07-30T07:30:13.071Z,31.30
2018-07-30T07:32:41.832Z,31.30
2018-07-30T07:37:38.258Z,31.50
2018-07-30T07:40:07.218Z,31.60
2018-07-30T07:42:35.602Z,31.70
2018-07-30T07:45:05.119Z,31.80
2018-07-30T07:47:33.379Z,31.90
2018-07-30T07:50:02.326Z,31.70
2018-07-30T07:52:30.959Z,31.50
2018-07-30T07:54:59.611Z,31.60
2018-07-30T07:59:56.711Z,32.00
2018-07-30T08:02:26.562Z,32.10
2018-07-30T08:04:55.307Z,31.80
2018-07-30T08:07:23.899Z,31.80
2018-07-30T08:09:52.700Z,31.60
2018-07-30T08:12:21.015Z,31.90
2018-07-30T08:14:49.746Z,32.30
2018-07-30T08:17:18.427Z,32.40
2018-07-30T08:19:46.878Z,32.60
2018-07-30T08:22:15.665Z,32.40
2018-07-30T08:24:44.007Z,32.60
2018-07-30T08:27:12.392Z,32.60
2018-07-30T08:29:40.761Z,32.70
2018-07-30T08:32:09.351Z,32.70
2018-07-30T08:34:37.783Z,33.20
2018-07-30T08:37:06.191Z,33.30
2018-07-30T08:39:35.060Z,33.40
2018-07-30T08:42:03.435Z,32.40
2018-07-30T08:44:32.083Z,31.30
2018-07-30T08:47:00.722Z,32.10
2018-07-30T08:49:29.131Z,32.90
2018-07-30T08:51:57.499Z,33.40
2018-07-30T08:54:25.878Z,34.00
2018-07-30T08:56:56.402Z,34.60
2018-07-30T08:59:24.790Z,34.60
2018-07-30T09:01:53.767Z,34.90
2018-07-30T09:04:22.348Z,35.10
2018-07-30T09:06:51.052Z,35.20
2018-07-30T09:09:19.723Z,35.30
2018-07-30T09:11:49.058Z,35.40
2018-07-30T09:14:17.468Z,35.50
2018-07-30T09:16:46.170Z,35.70
2018-07-30T09:19:14.635Z,36.00
2018-07-30T09:21:43.021Z,36.20
2018-07-30T09:24:11.711Z,35.90
2018-07-30T09:26:40.670Z,35.80
2018-07-30T09:29:09.032Z,36.20
2018-07-30T09:31:37.451Z,36.40
2018-07-30T09:34:06.132Z,36.50
2018-07-30T09:36:34.495Z,36.60
2018-07-30T09:39:02.967Z,36.50
2018-07-30T09:41:31.326Z,36.40
2018-07-30T09:44:00.738Z,36.30
2018-07-30T09:46:29.787Z,35.80
2018-07-30T09:48:58.182Z,35.70
2018-07-30T09:51:26.862Z,36.00
2018-07-30T09:53:55.491Z,36.20
2018-07-30T09:56:23.879Z,36.00
2018-07-30T09:58:52.819Z,36.10
2018-07-30T10:01:26.659Z,36.10
2018-07-30T10:03:55.016Z,36.40
2018-07-30T10:06:23.439Z,36.90
2018-07-30T10:08:51.823Z,36.50
2018-07-30T10:11:20.471Z,36.60
2018-07-30T10:13:49.203Z,36.60
2018-07-30T10:16:17.600Z,36.60
2018-07-30T10:18:46.330Z,37.10
2018-07-30T10:23:42.897Z,36.60
2018-07-30T10:26:11.215Z,36.90
2018-07-30T10:28:39.887Z,37.50
2018-07-30T10:31:08.865Z,38.10
2018-07-30T10:33:37.267Z,37.90
2018-07-30T10:36:05.691Z,37.50
2018-07-30T10:38:34.295Z,36.70
2018-07-30T10:41:02.984Z,36.40
2018-07-30T10:43:31.875Z,36.60
2018-07-30T10:46:00.535Z,37.00
2018-07-30T10:48:28.907Z,37.40
2018-07-30T10:50:57.486Z,37.50
2018-07-30T10:53:26.219Z,37.50
2018-07-30T10:55:54.623Z,37.80
2018-07-30T10:58:23.287Z,38.30
2018-07-30T11:00:51.751Z,37.90
2018-07-30T11:03:20.088Z,37.60
2018-07-30T11:05:48.782Z,37.90
2018-07-30T11:08:17.150Z,38.50
2018-07-30T11:10:45.723Z,38.60
2018-07-30T11:13:14.117Z,38.80
2018-07-30T11:15:42.471Z,38.70
2018-07-30T11:18:11.178Z,39.10
2018-07-30T11:20:40.119Z,39.50
2018-07-30T11:23:08.510Z,39.80
2018-07-30T11:25:36.920Z,39.90
2018-07-30T11:28:05.582Z,40.20
2018-07-30T11:30:34.150Z,40.40
2018-07-30T11:33:02.774Z,40.40
2018-07-30T11:35:31.370Z,38.90
2018-07-30T11:37:59.747Z,39.50
2018-07-30T11:40:28.147Z,39.30
2018-07-30T11:42:56.507Z,39.70
2018-07-30T11:45:24.875Z,39.70
2018-07-30T11:47:53.287Z,38.70
2018-07-30T11:50:21.910Z,39.20
2018-07-30T11:52:50.319Z,39.50
2018-07-30T11:55:19.058Z,39.50
2018-07-30T11:57:47.710Z,39.50
2018-07-30T12:00:16.084Z,39.80
2018-07-30T12:02:45.339Z,40.30
2018-07-30T12:05:14.022Z,40.60
2018-07-30T12:07:42.367Z,40.60
2018-07-30T12:10:11.063Z,40.40
2018-07-30T12:12:39.501Z,40.60
2018-07-30T12:15:08.403Z,40.30
2018-07-30T12:17:37.348Z,40.70
2018-07-30T12:20:05.945Z,40.90
2018-07-30T12:22:34.695Z,41.20
2018-07-30T12:25:03.769Z,41.30
2018-07-30T12:27:32.123Z,40.70
2018-07-30T12:30:00.826Z,40.60
2018-07-30T12:32:29.511Z,40.40
2018-07-30T12:37:26.005Z,40.70
2018-07-30T12:39:54.627Z,39.80
2018-07-30T12:42:23.045Z,39.20
2018-07-30T12:44:51.450Z,38.80
2018-07-30T12:47:20.107Z,38.40
2018-07-30T12:52:17.214Z,38.60
2018-07-30T12:54:45.590Z,38.80
2018-07-30T12:57:14.239Z,39.30
2018-07-30T12:59:42.680Z,39.70
2018-07-30T13:02:11.603Z,40.00
2018-07-30T13:04:39.984Z,40.40
2018-07-30T13:07:08.772Z,40.60
2018-07-30T13:09:37.444Z,39.50
2018-07-30T13:12:06.154Z,37.30
2018-07-30T13:14:34.843Z,36.30
2018-07-30T13:17:03.211Z,36.10
2018-07-30T13:19:32.203Z,36.30
2018-07-30T13:22:00.572Z,36.10
2018-07-30T13:24:29.245Z,35.80
2018-07-30T13:26:58.159Z,35.90
2018-07-30T13:29:26.873Z,35.70
2018-07-30T13:31:55.474Z,35.70
2018-07-30T13:34:23.823Z,35.60
2018-07-30T13:36:52.206Z,35.70
2018-07-30T13:39:20.580Z,35.70
2018-07-30T13:41:49.247Z,35.50
2018-07-30T13:44:17.891Z,35.10
2018-07-30T13:46:46.580Z,34.70
2018-07-30T13:49:15.879Z,34.90
2018-07-30T13:54:12.599Z,35.20
2018-07-30T13:56:40.979Z,35.20
2018-07-30T13:59:09.354Z,35.20
2018-07-30T14:01:38.011Z,35.20
2018-07-30T14:04:06.655Z,35.20
2018-07-30T14:06:35.405Z,35.10
2018-07-30T14:09:04.992Z,35.10
2018-07-30T14:11:34.221Z,34.80
2018-07-30T14:14:02.728Z,34.40
2018-07-30T14:16:32.193Z,34.30
2018-07-30T14:19:00.648Z,34.40
2018-07-30T14:21:29.331Z,33.80
2018-07-30T14:23:57.982Z,33.20
2018-07-30T14:26:26.679Z,33.10
2018-07-30T14:28:55.106Z,33.30
2018-07-30T14:31:25.494Z,33.50
2018-07-30T14:33:54.426Z,33.70
2018-07-30T14:36:24.355Z,33.90
2018-07-30T14:38:52.758Z,34.10
2018-07-30T14:46:20.572Z,34.40
2018-07-30T14:48:54.031Z,34.30
2018-07-30T14:51:26.013Z,34.20
2018-07-30T14:56:26.371Z,34.00
2018-07-30T14:58:55.083Z,33.90
2018-07-30T15:01:23.752Z,33.90
2018-07-30T15:03:52.962Z,33.70
2018-07-30T15:06:21.651Z,33.40
2018-07-30T15:08:50.682Z,33.30
2018-07-30T15:11:19.466Z,33.20
2018-07-30T15:13:47.823Z,33.20
2018-07-30T15:16:16.222Z,33.30
2018-07-30T15:18:45.574Z,33.30
2018-07-30T15:21:13.970Z,33.20
2018-07-30T15:23:43.675Z,33.30
2018-07-30T15:26:12.083Z,33.20
2018-07-30T15:28:40.892Z,33.00
2018-07-30T15:31:09.647Z,33.10
2018-07-30T15:33:38.542Z,33.30
2018-07-30T15:36:06.938Z,33.40
2018-07-30T15:38:35.568Z,33.30
2018-07-30T15:41:04.003Z,33.40
2018-07-30T15:43:32.407Z,33.40
2018-07-30T15:48:29.763Z,33.50
2018-07-30T15:50:58.501Z,33.60
2018-07-30T15:53:26.887Z,33.50
2018-07-30T15:55:55.360Z,33.30
2018-07-30T15:58:23.763Z,33.20
2018-07-30T16:00:52.162Z,33.20
2018-07-30T16:03:20.586Z,33.20
2018-07-30T16:05:49.038Z,33.10
2018-07-30T16:08:17.776Z,33.00
2018-07-30T16:10:46.443Z,33.00
2018-07-30T16:13:15.339Z,33.00
2018-07-30T16:15:44.435Z,32.90
2018-07-30T16:18:13.126Z,32.90
2018-07-30T16:20:41.971Z,32.90
2018-07-30T16:23:10.708Z,32.90
2018-07-30T16:25:39.391Z,32.90
2018-07-30T16:28:11.836Z,32.90
2018-07-30T16:30:44.791Z,32.80
2018-07-30T16:33:17.170Z,32.80
2018-07-30T16:35:47.075Z,32.80
2018-07-30T16:38:15.715Z,32.90
2018-07-30T16:40:44.142Z,33.00
2018-07-30T16:43:13.180Z,32.80
2018-07-30T16:45:41.647Z,32.80
2018-07-30T16:48:10.092Z,32.80
2018-07-30T16:53:06.911Z,32.80
2018-07-30T16:55:35.683Z,32.80
2018-07-30T16:58:04.369Z,32.80
2018-07-30T17:00:32.733Z,32.80
2018-07-30T17:03:01.126Z,32.80
2018-07-30T17:05:29.668Z,32.80
2018-07-30T17:10:26.849Z,32.60
2018-07-30T17:12:55.226Z,32.50
2018-07-30T17:15:23.634Z,32.40
2018-07-30T17:17:52.695Z,32.40
2018-07-30T17:20:21.523Z,32.30
2018-07-30T17:22:49.939Z,32.30
2018-07-30T17:27:46.631Z,32.10
2018-07-30T17:30:15.123Z,32.10
2018-07-30T17:32:44.595Z,32.00
2018-07-30T17:37:41.419Z,31.70
2018-07-30T17:40:10.687Z,31.60
2018-07-30T17:42:39.283Z,31.60
2018-07-30T17:45:10.334Z,31.50
2018-07-30T17:47:39.095Z,31.40
2018-07-30T17:50:07.836Z,31.40
2018-07-30T17:55:04.687Z,31.40
2018-07-30T17:57:33.450Z,31.40
2018-07-30T18:00:02.183Z,31.40
2018-07-30T18:04:59.462Z,31.30
2018-07-30T18:07:27.854Z,31.30
2018-07-30T18:09:56.219Z,31.30
2018-07-30T18:12:24.661Z,31.20
2018-07-30T18:14:53.051Z,31.10
2018-07-30T18:17:21.439Z,31.00
2018-07-30T18:19:50.139Z,30.90
2018-07-30T18:22:18.507Z,30.80
2018-07-30T18:27:15.311Z,30.60
2018-07-30T18:29:43.724Z,30.50
2018-07-30T18:37:16.147Z,30.30
2018-07-30T18:39:44.810Z,30.10
2018-07-30T18:42:13.539Z,29.90
2018-07-30T18:44:42.042Z,29.70
2018-07-30T18:47:10.473Z,29.60
2018-07-30T18:52:07.190Z,29.40
2018-07-30T18:54:35.783Z,29.30
2018-07-30T18:57:04.195Z,29.20
2018-07-30T18:59:32.596Z,28.90
2018-07-30T19:02:01.887Z,28.90
2018-07-30T19:04:30.259Z,28.90
2018-07-30T19:06:58.756Z,28.80
2018-07-30T19:09:27.159Z,28.60
2018-07-30T19:11:55.583Z,28.50
2018-07-30T19:14:24.179Z,28.40
2018-07-30T19:16:53.446Z,28.20
2018-07-30T19:19:22.835Z,28.10
2018-07-30T19:21:51.535Z,27.90
2018-07-30T19:24:20.561Z,27.70
2018-07-30T19:26:48.944Z,27.60
2018-07-30T19:29:17.572Z,27.60
2018-07-30T19:31:45.942Z,27.50
2018-07-30T19:34:14.684Z,27.50
2018-07-30T19:36:43.395Z,27.40
2018-07-30T19:39:13.127Z,27.10
2018-07-30T19:41:41.826Z,27.00
2018-07-30T19:44:10.479Z,26.80
2018-07-30T19:46:39.131Z,26.70
2018-07-30T19:49:07.688Z,26.50
2018-07-30T19:51:36.413Z,26.50
2018-07-30T19:54:04.795Z,26.50
2018-07-30T19:56:33.191Z,26.50
2018-07-30T19:59:02.614Z,26.50
2018-07-30T20:01:30.791Z,26.50
2018-07-30T20:03:59.195Z,26.30
2018-07-30T20:06:27.858Z,26.10
2018-07-30T20:08:56.656Z,25.90
2018-07-30T20:11:25.443Z,25.70
2018-07-30T20:13:54.699Z,25.60
2018-07-30T20:16:23.891Z,25.60
2018-07-30T20:18:52.590Z,25.40
2018-07-30T20:21:21.056Z,25.40
2018-07-30T20:23:49.442Z,25.50
2018-07-30T20:26:17.832Z,25.50
2018-07-30T20:28:46.427Z,25.40
2018-07-30T20:31:20.630Z,25.30
2018-07-30T20:33:49.719Z,25.20
2018-07-30T20:36:18.437Z,25.00
2018-07-30T20:38:47.387Z,24.90
2018-07-30T20:41:16.216Z,24.90
2018-07-30T20:43:45.535Z,24.80
2018-07-30T20:46:14.881Z,24.70
2018-07-30T20:48:44.034Z,24.70
2018-07-30T20:51:14.130Z,24.60
2018-07-30T20:53:42.510Z,24.50
2018-07-30T20:56:10.891Z,24.40
2018-07-30T20:58:39.334Z,24.20
2018-07-30T21:01:08.012Z,24.10
2018-07-30T21:03:36.411Z,24.00
2018-07-30T21:06:04.939Z,24.00
2018-07-30T21:08:33.346Z,24.00
2018-07-30T21:11:01.751Z,23.90
2018-07-30T21:13:30.415Z,23.90
2018-07-30T21:15:59.098Z,23.80
2018-07-30T21:18:27.559Z,23.70
2018-07-30T21:20:56.473Z,23.70
2018-07-30T21:23:25.082Z,23.70
2018-07-30T21:25:54.363Z,23.40
2018-07-30T21:28:23.065Z,23.20
2018-07-30T21:30:51.535Z,23.20
2018-07-30T21:33:19.958Z,23.20
2018-07-30T21:35:48.331Z,23.20
2018-07-30T21:38:16.752Z,23.20
2018-07-30T21:40:45.268Z,23.10
2018-07-30T21:43:13.690Z,23.00
2018-07-30T21:45:43.042Z,22.90
2018-07-30T21:48:11.703Z,22.90
2018-07-30T21:50:40.083Z,22.80
2018-07-30T21:53:09.007Z,22.80
2018-07-30T21:55:37.407Z,22.70
2018-07-30T22:00:34.383Z,22.40
2018-07-30T22:05:31.165Z,22.40
2018-07-30T22:07:59.519Z,22.40
2018-07-30T22:10:27.926Z,22.20
2018-07-30T22:12:56.595Z,22.20
2018-07-30T22:15:25.015Z,21.90
2018-07-30T22:17:53.682Z,21.90
2018-07-30T22:20:22.117Z,21.90
2018-07-30T22:22:50.771Z,21.90
2018-07-30T22:25:19.138Z,21.90
2018-07-30T22:27:47.739Z,21.90
2018-07-30T22:30:16.131Z,21.80
2018-07-30T22:32:44.767Z,21.80
2018-07-30T22:35:13.167Z,21.80
2018-07-30T22:37:41.868Z,21.80
2018-07-30T22:40:10.517Z,21.70
2018-07-30T22:42:40.115Z,21.60
2018-07-30T22:45:08.847Z,21.60
2018-07-30T22:47:37.251Z,21.50
2018-07-30T22:50:05.686Z,21.50
2018-07-30T22:52:34.063Z,21.40
2018-07-30T22:55:02.466Z,21.40
2018-07-30T22:57:31.387Z,21.20
2018-07-30T22:59:59.772Z,21.20
2018-07-30T23:02:28.439Z,21.20
2018-07-30T23:04:56.823Z,21.30
2018-07-30T23:09:53.805Z,21.20
2018-07-30T23:12:22.499Z,21.20
2018-07-30T23:14:51.143Z,21.20
2018-07-30T23:17:19.803Z,21.20
2018-07-30T23:19:48.263Z,21.10
2018-07-30T23:22:17.387Z,21.10
2018-07-30T23:24:45.755Z,21.10
2018-07-30T23:27:14.551Z,21.00
2018-07-30T23:29:42.955Z,20.90
2018-07-30T23:32:11.650Z,20.80
2018-07-30T23:34:40.022Z,20.70
2018-07-30T23:37:08.714Z,20.70
2018-07-30T23:39:37.318Z,20.70
2018-07-30T23:42:06.019Z,20.50
2018-07-30T23:44:34.572Z,20.50
2018-07-30T23:47:04.380Z,20.50
2018-07-30T23:49:33.030Z,20.30
2018-07-30T23:52:01.999Z,20.30
2018-07-30T23:54:30.375Z,20.30
2018-07-30T23:56:59.011Z,20.40
2018-07-30T23:59:27.407Z,20.40
